Time;durP1;ratioP1;P1;durP2;ratioP2;P2;SDS_P1;SDS_P2;PMS_P1;PMS_P2;Temp;Humidity;BMP_temperature;BMP_pressure;BME280_temperature;BME280_humidity;BME280_pressure;Samples;Min_cycle;Max_cycle;Signal;HPM_P1;HPM_P2
2022/08/11 00:01:16;;;;;;;4.05;3.65;;;20.70;87.00;;;;;;5033041;28;20022;-59
2022/08/11 00:03:45;;;;;;;4.20;3.67;;;20.70;87.10;;;;;;5033538;28;20019;-59
2022/08/11 00:06:13;;;;;;;4.40;3.80;;;20.70;87.10;;;;;;5033449;28;20032;-59
2022/08/11 00:08:40;;;;;;;4.18;3.25;;;20.70;87.20;;;;;;5031823;28;20037;-59
2022/08/11 00:11:08;;;;;;;3.30;2.97;;;20.70;87.40;;;;;;5039914;28;20033;-59
2022/08/11 00:13:44;;;;;;;4.55;3.85;;;20.80;87.50;;;;;;5030395;28;20057;-59
2022/08/11 00:16:24;;;;;;;4.50;3.72;;;20.70;87.50;;;;;;5007144;28;20032;-59
2022/08/11 00:18:53;;;;;;;4.30;3.83;;;20.80;87.60;;;;;;5030741;28;20400;-59
2022/08/11 00:21:21;;;;;;;4.28;3.30;;;20.80;87.60;;;;;;5033013;28;20021;-59
2022/08/11 00:23:56;;;;;;;3.85;3.45;;;20.80;87.70;;;;;;5032409;28;20029;-59
2022/08/11 00:26:23;;;;;;;4.32;3.70;;;20.80;87.70;;;;;;5022452;28;20029;-59
2022/08/11 00:28:51;;;;;;;4.25;3.60;;;20.80;87.90;;;;;;5029694;28;20103;-59
2022/08/11 00:31:35;;;;;;;4.03;3.63;;;20.80;87.80;;;;;;5027298;28;20057;-59
2022/08/11 00:34:02;;;;;;;4.13;3.72;;;20.80;87.70;;;;;;5031984;28;20175;-59
2022/08/11 00:36:45;;;;;;;4.72;3.85;;;20.80;87.80;;;;;;5044129;28;20543;-59
2022/08/11 00:39:13;;;;;;;4.28;3.88;;;20.80;87.60;;;;;;5021482;28;20107;-59
2022/08/11 00:42:00;;;;;;;4.55;3.85;;;20.80;87.70;;;;;;5030549;28;20022;-59
2022/08/11 00:44:55;;;;;;;4.07;3.67;;;20.80;87.70;;;;;;5030586;28;20044;-59
2022/08/11 00:47:30;;;;;;;3.80;3.40;;;20.80;87.70;;;;;;5032433;28;20064;-59
2022/08/11 00:50:13;;;;;;;4.47;3.58;;;20.80;87.70;;;;;;5031670;28;20422;-59
2022/08/11 00:53:13;;;;;;;5.13;4.38;;;20.80;87.80;;;;;;5032670;28;20033;-59
2022/08/11 00:56:15;;;;;;;3.90;3.42;;;20.80;87.80;;;;;;5032694;28;20079;-59
2022/08/11 00:59:11;;;;;;;5.13;4.05;;;20.80;87.90;;;;;;5021652;28;20496;-59
2022/08/11 01:01:37;;;;;;;4.55;3.97;;;20.70;87.90;;;;;;5032329;28;20079;-59
2022/08/11 01:04:24;;;;;;;5.93;4.70;;;20.70;88.20;;;;;;5032719;28;20366;-59
2022/08/11 01:07:20;;;;;;;5.40;4.25;;;20.80;88.30;;;;;;5024407;28;20164;-60
2022/08/11 01:10:06;;;;;;;3.65;3.28;;;20.70;88.20;;;;;;5023800;28;20029;-59
2022/08/11 01:12:48;;;;;;;4.35;3.75;;;20.80;88.40;;;;;;5034934;28;20033;-59
2022/08/11 01:15:46;;;;;;;4.00;3.50;;;20.70;88.50;;;;;;5031332;28;20433;-59
2022/08/11 01:18:29;;;;;;;4.68;4.10;;;20.70;88.50;;;;;;5026559;28;20068;-59
2022/08/11 01:21:04;;;;;;;3.55;3.15;;;20.70;89.20;;;;;;5035407;28;20422;-59
2022/08/11 01:24:07;;;;;;;4.45;3.95;;;20.70;88.60;;;;;;5036385;28;20489;-59
2022/08/11 01:27:03;;;;;;;3.92;3.55;;;20.80;88.70;;;;;;5028513;28;20033;-59
2022/08/11 01:29:32;;;;;;;4.00;3.40;;;20.70;88.60;;;;;;5025499;28;20049;-59
2022/08/11 01:32:06;;;;;;;4.05;3.30;;;20.80;88.80;;;;;;5028078;28;20353;-59
2022/08/11 01:35:00;;;;;;;3.85;3.40;;;20.70;88.60;;;;;;5034631;28;20079;-59
2022/08/11 01:37:56;;;;;;;4.50;3.78;;;20.70;88.50;;;;;;5042882;28;20532;-59
2022/08/11 01:40:36;;;;;;;4.10;3.55;;;20.80;88.60;;;;;;5035421;28;20021;-59
2022/08/11 01:46:31;;;;;;;4.50;3.70;;;20.80;88.80;;;;;;5047892;28;20102;-59
2022/08/11 01:49:10;;;;;;;3.97;3.50;;;20.80;88.90;;;;;;5041234;28;20053;-59
2022/08/11 01:51:44;;;;;;;4.47;4.00;;;20.80;88.90;;;;;;5026316;28;20029;-59
2022/08/11 01:54:31;;;;;;;4.05;3.45;;;20.80;89.00;;;;;;5038298;28;20079;-59
2022/08/11 01:57:19;;;;;;;4.25;3.38;;;20.80;89.10;;;;;;5035838;28;20026;-59
2022/08/11 01:59:51;;;;;;;3.97;3.40;;;20.80;89.10;;;;;;5035559;28;20029;-59
2022/08/11 02:02:54;;;;;;;3.58;3.15;;;20.90;89.10;;;;;;5040701;28;20032;-59
2022/08/11 02:05:19;;;;;;;4.07;3.28;;;20.90;89.00;;;;;;5024401;28;20041;-59
2022/08/11 02:08:16;;;;;;;4.90;3.47;;;20.90;88.90;;;;;;5034959;28;20021;-59
2022/08/11 02:14:09;;;;;;;4.05;3.42;;;20.90;89.00;;;;;;5034797;28;20091;-60
2022/08/11 02:16:35;;;;;;;3.70;3.40;;;20.90;88.90;;;;;;5029803;28;20060;-60
2022/08/11 02:25:50;;;;;;;3.65;3.33;;;20.90;88.90;;;;;;5033333;28;20103;-59
2022/08/11 02:28:24;;;;;;;3.78;3.22;;;20.90;88.60;;;;;;5016359;28;20033;-60
2022/08/11 02:34:55;;;;;;;2.88;2.67;;;21.00;88.80;;;;;;5031534;28;20040;-59
2022/08/11 02:37:33;;;;;;;3.50;3.17;;;20.90;88.80;;;;;;5020558;28;20477;-59
2022/08/11 02:40:02;;;;;;;4.03;3.30;;;21.00;88.80;;;;;;5023325;28;20097;-60
2022/08/11 02:42:42;;;;;;;4.07;3.58;;;21.00;89.00;;;;;;5029931;28;20433;-60
2022/08/11 02:45:11;;;;;;;4.30;3.70;;;20.90;88.90;;;;;;5030826;28;20458;-60
2022/08/11 02:51:07;;;;;;;3.97;3.42;;;20.90;89.00;;;;;;5034438;28;20040;-59
2022/08/11 02:54:02;;;;;;;3.13;2.83;;;21.00;89.00;;;;;;5045226;28;20025;-59
2022/08/11 02:56:53;;;;;;;3.80;3.40;;;21.00;89.10;;;;;;5024121;28;20068;-59
2022/08/11 02:59:51;;;;;;;3.65;3.22;;;21.00;89.30;;;;;;5024139;28;20057;-59
2022/08/11 03:02:31;;;;;;;4.03;3.35;;;21.00;89.30;;;;;;5031244;28;20428;-59
2022/08/11 03:05:23;;;;;;;3.60;3.20;;;21.00;89.40;;;;;;5033225;28;20025;-59
2022/08/11 03:08:10;;;;;;;3.85;3.40;;;21.00;89.50;;;;;;5016938;28;20025;-59
2022/08/11 03:16:43;;;;;;;4.55;3.53;;;21.00;89.30;;;;;;5021354;28;20017;-60
2022/08/11 03:16:45;;;;;;;4.10;3.38;;;20.90;89.40;;;;;;5028540;28;20551;-59
2022/08/11 03:19:48;;;;;;;3.40;3.03;;;21.00;89.30;;;;;;5026898;28;20029;-60
2022/08/11 03:22:37;;;;;;;4.18;3.17;;;21.00;89.20;;;;;;5022477;28;20032;-59
2022/08/11 03:25:21;;;;;;;2.70;2.50;;;21.00;89.40;;;;;;5034145;28;20380;-59
2022/08/11 03:28:08;;;;;;;4.60;3.50;;;21.00;89.20;;;;;;5032277;28;20504;-59
2022/08/11 03:30:45;;;;;;;4.18;3.55;;;21.10;89.20;;;;;;5024285;28;20025;-59
2022/08/11 03:36:45;;;;;;;3.60;3.20;;;21.10;89.00;;;;;;5032918;28;20391;-59
2022/08/11 03:39:27;;;;;;;4.07;3.40;;;21.10;88.90;;;;;;5032359;28;20030;-60
2022/08/11 03:42:20;;;;;;;4.47;3.33;;;21.10;89.00;;;;;;5033682;28;20041;-59
2022/08/11 03:45:19;;;;;;;3.55;3.25;;;21.10;89.00;;;;;;5033684;28;20018;-60
2022/08/11 03:48:03;;;;;;;3.63;3.28;;;21.10;89.00;;;;;;5033515;28;20211;-60
2022/08/11 03:50:46;;;;;;;3.60;3.03;;;21.10;89.10;;;;;;5022729;28;20084;-60
2022/08/11 03:53:29;;;;;;;3.97;3.40;;;21.10;89.00;;;;;;5032055;28;20374;-59
2022/08/11 03:56:13;;;;;;;3.83;3.42;;;21.10;89.10;;;;;;5031153;28;20029;-60
2022/08/11 03:58:56;;;;;;;3.95;3.33;;;21.10;89.20;;;;;;5032388;28;20021;-60
2022/08/11 04:01:53;;;;;;;4.25;3.67;;;21.10;89.30;;;;;;5036870;28;20386;-59
2022/08/11 04:04:28;;;;;;;3.42;3.13;;;21.10;89.40;;;;;;5020789;28;20161;-59
2022/08/11 04:07:21;;;;;;;4.30;3.90;;;21.10;89.70;;;;;;5024279;28;20025;-60
2022/08/11 04:10:05;;;;;;;4.22;3.60;;;21.10;89.60;;;;;;5032139;28;20029;-59
2022/08/11 04:13:07;;;;;;;4.10;3.40;;;21.10;89.90;;;;;;5021371;28;20643;-60
2022/08/11 04:16:01;;;;;;;4.50;3.38;;;21.10;89.60;;;;;;5033224;28;20026;-59
2022/08/11 04:18:52;;;;;;;4.18;3.58;;;21.10;89.80;;;;;;5032976;28;20480;-60
2022/08/11 04:21:55;;;;;;;3.60;3.15;;;21.10;90.00;;;;;;5026774;28;20025;-59
2022/08/11 04:24:38;;;;;;;4.07;3.38;;;21.00;90.10;;;;;;5025924;28;20104;-59
2022/08/11 04:27:09;;;;;;;4.97;3.90;;;21.00;90.20;;;;;;5023342;28;20025;-59
2022/08/11 04:29:53;;;;;;;;;;;21.00;90.50;;;;;;5032720;28;20021;-60
2022/08/11 04:32:40;;;;;;;4.97;4.30;;;21.00;90.80;;;;;;5032880;28;19905;-60
2022/08/11 04:35:32;;;;;;;3.90;3.50;;;21.00;90.60;;;;;;5020050;28;20473;-59
2022/08/11 04:38:16;;;;;;;4.95;4.22;;;21.00;90.70;;;;;;5032455;28;20045;-60
2022/08/11 04:41:13;;;;;;;4.32;3.75;;;21.00;90.90;;;;;;5029635;28;20025;-60
2022/08/11 04:44:16;;;;;;;4.70;3.85;;;21.00;91.00;;;;;;5021604;28;20132;-59
2022/08/11 05:01:39;;;;;;;3.92;3.47;;;21.00;91.10;;;;;;5022224;28;20049;-59
2022/08/11 05:02:57;;;;;;;4.50;4.00;;;21.10;91.10;;;;;;5024339;28;20175;-60
2022/08/11 05:05:54;;;;;;;4.50;3.63;;;21.10;91.20;;;;;;5028728;28;20107;-59
2022/08/11 05:08:47;;;;;;;3.95;3.53;;;21.10;91.10;;;;;;5023062;28;20025;-59
2022/08/11 05:11:49;;;;;;;4.53;3.75;;;21.10;91.10;;;;;;5019642;28;20033;-60
2022/08/11 05:34:52;;;;;;;5.10;4.22;;;22.00;90.80;;;;;;5025056;28;20036;-60
2022/08/11 05:37:24;;;;;;;5.47;3.90;;;22.30;90.70;;;;;;5027095;28;20378;-60
2022/08/11 05:56:48;;;;;;;4.28;3.88;;;23.30;87.20;;;;;;5024389;28;20094;-60
2022/08/11 05:59:17;;;;;;;4.70;4.20;;;23.40;87.10;;;;;;5017318;28;20037;-60
2022/08/11 06:01:43;;;;;;;4.32;3.70;;;23.40;86.90;;;;;;5015508;28;20160;-60
2022/08/11 06:04:23;;;;;;;5.00;4.10;;;23.60;86.40;;;;;;5023471;28;20029;-60
2022/08/11 06:06:57;;;;;;;4.78;4.22;;;23.60;86.20;;;;;;5024188;28;20036;-60
2022/08/11 06:09:37;;;;;;;5.13;4.18;;;23.70;85.80;;;;;;5012844;28;20114;-61
2022/08/11 06:12:14;;;;;;;4.35;3.95;;;23.80;85.60;;;;;;5024598;28;20393;-60
2022/08/11 06:14:42;;;;;;;4.30;3.90;;;23.90;85.20;;;;;;5018852;28;20035;-60
2022/08/11 06:17:10;;;;;;;4.40;4.00;;;24.00;84.80;;;;;;5016568;28;20057;-61
2022/08/11 06:19:41;;;;;;;4.22;3.83;;;24.00;84.60;;;;;;5006900;28;20037;-59
2022/08/11 06:22:10;;;;;;;4.68;4.00;;;24.10;84.30;;;;;;5020487;28;20033;-59
2022/08/11 06:24:39;;;;;;;4.63;4.07;;;24.10;83.90;;;;;;5010405;28;20044;-59
2022/08/11 06:27:06;;;;;;;4.70;4.18;;;24.20;83.90;;;;;;5016460;28;20084;-60
2022/08/11 06:29:40;;;;;;;5.00;3.70;;;24.20;83.70;;;;;;5018547;28;20485;-58
2022/08/11 06:32:10;;;;;;;4.28;3.88;;;24.30;83.70;;;;;;5014542;28;20057;-60
2022/08/11 06:34:54;;;;;;;4.20;3.80;;;24.30;83.40;;;;;;5015097;28;20033;-59
2022/08/11 06:37:38;;;;;;;4.47;3.85;;;24.40;83.20;;;;;;5016140;28;21207;-60
2022/08/11 06:40:28;;;;;;;3.85;3.42;;;24.40;83.00;;;;;;5006759;28;20029;-60
2022/08/11 06:43:22;;;;;;;5.13;4.45;;;24.50;82.50;;;;;;5012841;28;20152;-60
2022/08/11 06:45:51;;;;;;;4.32;3.80;;;24.50;82.40;;;;;;5006263;28;20048;-60
2022/08/11 06:48:20;;;;;;;4.90;4.10;;;24.50;82.70;;;;;;5009897;28;21669;-59
2022/08/11 06:53:44;;;;;;;4.70;3.92;;;24.60;82.60;;;;;;5014115;28;20571;-60
2022/08/11 07:02:02;;;;;;;5.03;4.28;;;24.80;81.70;;;;;;4998974;28;20048;-60
2022/08/11 07:04:59;;;;;;;4.65;4.10;;;24.90;81.20;;;;;;4990728;28;20029;-58
2022/08/11 07:16:49;;;;;;;4.90;3.63;;;25.10;80.10;;;;;;5004702;28;20056;-59
2022/08/11 07:30:55;;;;;;;4.32;3.92;;;25.30;78.50;;;;;;5000061;28;20036;-60
2022/08/11 07:33:39;;;;;;;4.70;4.18;;;25.30;78.20;;;;;;4999608;28;20184;-61
2022/08/11 07:36:07;;;;;;;4.47;4.03;;;25.30;77.50;;;;;;4993055;28;20048;-60
2022/08/11 07:38:42;;;;;;;3.95;3.55;;;25.40;77.40;;;;;;4998885;28;20178;-60
2022/08/11 07:41:13;;;;;;;4.18;3.70;;;25.40;77.00;;;;;;4995928;28;20025;-60
2022/08/11 07:43:41;;;;;;;3.60;3.30;;;25.40;76.70;;;;;;5005592;28;20111;-61
2022/08/11 07:54:27;;;;;;;4.05;3.65;;;25.40;76.50;;;;;;4998105;28;20604;-58
2022/08/11 07:56:53;;;;;;;5.00;3.95;;;25.40;76.30;;;;;;4997483;28;20040;-58
2022/08/11 08:18:39;;;;;;;3.67;3.38;;;25.50;75.80;;;;;;5001581;28;20095;-59
2022/08/11 08:21:13;;;;;;;5.07;3.70;;;25.50;75.50;;;;;;4999128;28;20111;-59
2022/08/11 08:23:44;;;;;;;3.72;3.33;;;25.50;75.30;;;;;;4996387;28;20037;-59
2022/08/11 08:31:47;;;;;;;4.50;3.90;;;25.60;74.90;;;;;;5003111;28;20048;-58
2022/08/11 08:34:14;;;;;;;4.28;3.88;;;25.60;74.80;;;;;;5001780;28;20478;-59
2022/08/11 08:36:49;;;;;;;4.22;3.83;;;25.60;74.50;;;;;;5004111;28;20541;-58
2022/08/11 08:39:20;;;;;;;4.00;3.47;;;25.50;74.50;;;;;;5007635;28;20028;-58
2022/08/11 08:41:51;;;;;;;3.53;3.22;;;25.50;74.50;;;;;;4993010;28;20037;-57
2022/08/11 08:44:19;;;;;;;4.07;3.67;;;25.50;74.60;;;;;;5000352;28;20894;-58
2022/08/11 08:46:58;;;;;;;4.13;3.72;;;25.40;74.60;;;;;;4996894;28;20069;-58
2022/08/11 08:49:43;;;;;;;3.85;3.45;;;25.40;74.40;;;;;;5004994;28;20060;-59
2022/08/11 08:52:11;;;;;;;4.50;4.05;;;25.40;74.70;;;;;;5001589;28;20076;-58
2022/08/11 08:54:40;;;;;;;4.55;4.15;;;25.40;74.70;;;;;;5001408;28;20056;-58
2022/08/11 08:57:08;;;;;;;3.92;3.53;;;25.50;74.60;;;;;;4996647;28;20039;-58
2022/08/11 08:59:41;;;;;;;4.95;4.28;;;25.50;74.70;;;;;;5001040;28;20787;-57
2022/08/11 09:02:11;;;;;;;4.53;3.50;;;25.60;74.60;;;;;;5002705;28;20026;-58
2022/08/11 09:04:39;;;;;;;4.00;3.30;;;25.60;74.60;;;;;;5018304;28;20034;-59
2022/08/11 09:07:17;;;;;;;3.97;3.60;;;25.70;74.80;;;;;;5001306;28;20100;-58
2022/08/11 09:09:55;;;;;;;3.75;3.42;;;25.70;74.80;;;;;;5001752;28;20029;-59
2022/08/11 09:12:26;;;;;;;3.88;3.47;;;25.70;74.60;;;;;;4992984;28;20029;-59
2022/08/11 09:15:02;;;;;;;3.53;3.10;;;25.70;74.60;;;;;;4995784;28;20029;-57
2022/08/11 09:17:35;;;;;;;4.22;3.83;;;25.70;74.50;;;;;;4987257;28;20064;-57
2022/08/11 09:20:07;;;;;;;3.80;3.40;;;25.60;74.50;;;;;;4993250;28;20119;-58
2022/08/11 09:28:13;;;;;;;4.07;3.67;;;25.60;74.70;;;;;;4988912;28;20047;-60
2022/08/11 09:30:42;;;;;;;;;;;25.60;74.80;;;;;;4994824;28;20041;-60
2022/08/11 09:33:11;;;;;;;3.60;3.30;;;25.60;74.60;;;;;;4994283;28;19999;-60
2022/08/11 09:35:42;;;;;;;3.60;3.10;;;25.60;74.90;;;;;;4995308;28;20021;-58
2022/08/11 09:40:55;;;;;;;3.70;3.40;;;25.70;75.00;;;;;;4994320;28;20064;-60
2022/08/11 09:46:08;;;;;;;3.05;2.83;;;25.60;75.00;;;;;;4994263;28;20182;-58
2022/08/11 09:48:38;;;;;;;4.18;3.40;;;25.60;75.20;;;;;;4992360;28;20124;-60
2022/08/11 09:51:06;;;;;;;3.13;2.88;;;25.60;75.40;;;;;;4996939;28;20033;-60
2022/08/11 09:53:42;;;;;;;3.28;2.97;;;25.50;75.40;;;;;;4992042;28;20036;-60
2022/08/11 09:59:02;;;;;;;3.83;3.33;;;25.50;75.60;;;;;;4996859;28;20051;-61
2022/08/11 10:01:33;;;;;;;3.28;2.97;;;25.50;75.80;;;;;;4997546;28;20033;-59
2022/08/11 10:04:05;;;;;;;4.00;3.55;;;25.40;75.80;;;;;;4999763;28;20032;-59
2022/08/11 10:09:23;;;;;;;3.05;2.67;;;25.40;76.20;;;;;;4987202;28;20076;-59
2022/08/11 10:11:51;;;;;;;4.40;3.70;;;25.40;76.40;;;;;;4997425;28;20112;-59
2022/08/11 10:17:08;;;;;;;3.72;3.40;;;25.40;76.20;;;;;;4992449;28;20555;-58
2022/08/11 10:19:38;;;;;;;3.60;3.30;;;25.40;76.30;;;;;;4996224;28;21935;-59
2022/08/11 10:27:40;;;;;;;4.43;4.03;;;25.50;76.00;;;;;;4997815;28;20119;-59
2022/08/11 10:35:36;;;;;;;4.70;4.15;;;25.50;75.50;;;;;;4997288;28;20969;-59
2022/08/11 10:38:02;;;;;;;5.03;4.00;;;25.60;75.80;;;;;;4995526;28;20763;-60
2022/08/11 10:40:28;;;;;;;3.53;3.22;;;25.60;75.80;;;;;;5001128;28;20036;-60
2022/08/11 10:43:09;;;;;;;4.00;3.58;;;25.70;76.00;;;;;;4997465;28;20046;-59
2022/08/11 10:48:22;;;;;;;3.75;3.42;;;25.80;76.00;;;;;;5001176;28;19932;-59
2022/08/11 10:59:08;;;;;;;3.90;3.38;;;26.00;75.60;;;;;;4995294;28;20059;-60
2022/08/11 11:01:37;;;;;;;3.33;2.97;;;26.10;75.50;;;;;;4999534;28;23168;-59
2022/08/11 11:04:14;;;;;;;3.70;3.30;;;26.10;75.50;;;;;;4998213;28;20691;-60
2022/08/11 11:06:56;;;;;;;3.85;3.47;;;26.00;75.20;;;;;;4991764;28;20158;-60
2022/08/11 11:09:36;;;;;;;3.70;3.28;;;26.00;75.20;;;;;;4990149;28;20033;-59
2022/08/11 11:18:10;;;;;;;3.63;3.20;;;26.00;75.90;;;;;;4992262;28;20049;-58
2022/08/11 11:20:55;;;;;;;4.07;3.25;;;26.10;76.20;;;;;;4993182;28;20129;-58
2022/08/11 11:23:39;;;;;;;4.18;3.35;;;26.00;76.40;;;;;;4992557;28;20703;-60
2022/08/11 11:26:24;;;;;;;3.63;3.33;;;26.00;76.60;;;;;;5002402;28;20112;-59
2022/08/11 11:29:27;;;;;;;3.15;2.85;;;26.00;76.70;;;;;;5000772;28;20436;-59
2022/08/11 11:32:25;;;;;;;3.75;3.35;;;26.00;76.90;;;;;;5002019;28;20501;-61
2022/08/11 11:35:14;;;;;;;3.58;3.25;;;26.10;77.00;;;;;;5003973;28;20042;-59
2022/08/11 11:37:43;;;;;;;4.20;3.70;;;26.10;77.20;;;;;;4988940;28;20037;-59
2022/08/11 11:40:14;;;;;;;4.05;3.72;;;26.10;77.10;;;;;;4991259;28;20647;-60
2022/08/11 11:42:44;;;;;;;4.03;3.63;;;26.10;77.10;;;;;;4994544;28;20100;-59
2022/08/11 11:45:10;;;;;;;3.88;3.47;;;26.10;77.10;;;;;;4993718;28;20128;-60
2022/08/11 11:47:37;;;;;;;3.97;3.55;;;26.10;77.20;;;;;;4994096;28;20029;-59
2022/08/11 11:50:05;;;;;;;4.20;3.80;;;26.10;77.20;;;;;;4988909;28;20026;-59
2022/08/11 11:52:31;;;;;;;4.60;3.88;;;26.20;77.20;;;;;;4995145;28;20061;-60
2022/08/11 11:54:59;;;;;;;3.95;3.55;;;26.20;77.10;;;;;;4997681;28;21099;-60
2022/08/11 12:02:58;;;;;;;3.38;3.03;;;26.30;77.10;;;;;;4994466;28;20095;-60
2022/08/11 12:05:25;;;;;;;3.97;3.40;;;26.30;76.90;;;;;;4986265;28;21626;-59
2022/08/11 12:10:38;;;;;;;3.80;3.28;;;26.40;76.80;;;;;;5004108;28;20045;-60
2022/08/11 12:15:51;;;;;;;3.80;3.40;;;26.30;76.70;;;;;;5000038;28;20405;-59
2022/08/11 12:18:18;;;;;;;3.42;3.13;;;26.30;76.70;;;;;;5001616;28;20140;-60
2022/08/11 12:20:44;;;;;;;3.88;3.47;;;26.30;76.70;;;;;;4993940;28;20021;-59
2022/08/11 12:28:46;;;;;;;3.95;3.50;;;26.30;77.60;;;;;;5007364;28;20724;-60
2022/08/11 12:31:12;;;;;;;3.75;3.45;;;26.30;77.00;;;;;;4996710;28;20087;-59
2022/08/11 12:33:42;;;;;;;3.75;3.33;;;26.30;77.00;;;;;;4995541;28;20049;-59
2022/08/11 12:36:15;;;;;;;4.00;3.60;;;26.30;77.00;;;;;;4993857;28;20473;-59
2022/08/11 12:38:46;;;;;;;4.15;3.60;;;26.40;76.90;;;;;;4998218;28;20049;-59
2022/08/11 12:46:45;;;;;;;3.90;3.50;;;26.40;76.70;;;;;;4984077;28;20157;-60
2022/08/11 12:52:09;;;;;;;4.70;3.47;;;26.50;76.80;;;;;;4993618;28;20084;-60
2022/08/11 12:55:06;;;;;;;4.30;3.90;;;26.50;76.60;;;;;;4996895;28;20037;-59
2022/08/11 13:06:05;;;;;;;3.58;3.28;;;26.50;76.70;;;;;;4990031;28;20053;-57
2022/08/11 13:08:35;;;;;;;4.30;3.47;;;26.50;76.70;;;;;;5007577;28;20127;-58
2022/08/11 13:13:48;;;;;;;4.07;3.67;;;26.50;76.50;;;;;;5000323;28;20106;-58
2022/08/11 13:16:15;;;;;;;3.70;3.40;;;26.50;76.80;;;;;;5002018;28;20555;-59
2022/08/11 13:18:43;;;;;;;3.95;3.50;;;26.50;76.80;;;;;;4993834;28;20033;-58
2022/08/11 13:21:12;;;;;;;4.07;3.67;;;26.50;76.80;;;;;;5002580;28;20033;-59
2022/08/11 13:23:40;;;;;;;4.00;3.60;;;26.50;76.70;;;;;;5001134;28;20656;-59
2022/08/11 13:26:09;;;;;;;4.05;3.65;;;26.50;76.80;;;;;;4991630;28;20045;-59
2022/08/11 13:28:36;;;;;;;3.55;3.25;;;26.50;76.90;;;;;;4997875;28;20536;-59
2022/08/11 13:31:13;;;;;;;3.97;3.60;;;26.50;77.00;;;;;;4997461;28;20507;-58
2022/08/11 13:33:46;;;;;;;4.30;3.85;;;26.50;77.20;;;;;;4998470;28;20762;-57
2022/08/11 13:36:14;;;;;;;4.22;3.55;;;26.40;76.80;;;;;;4994776;28;20036;-59
2022/08/11 13:38:42;;;;;;;4.43;3.70;;;26.40;76.80;;;;;;5001512;28;20128;-59
2022/08/11 13:41:37;;;;;;;4.30;3.90;;;26.50;76.90;;;;;;4996881;28;20029;-59
2022/08/11 13:43:55;;;;;;;4.70;4.07;;;26.50;77.00;;;;;;4989055;28;20048;-61
2022/08/11 13:46:23;;;;;;;4.47;3.60;;;26.50;77.00;;;;;;4992093;28;20026;-60
2022/08/11 13:48:51;;;;;;;4.85;3.85;;;26.50;77.20;;;;;;4994789;28;20033;-58
2022/08/11 13:51:29;;;;;;;4.47;4.07;;;26.50;77.30;;;;;;5001029;28;20595;-60
2022/08/11 13:54:17;;;;;;;3.47;3.17;;;26.50;77.20;;;;;;4999601;28;20025;-58
2022/08/11 13:56:46;;;;;;;3.80;3.38;;;26.50;77.10;;;;;;5001720;28;20397;-60
2022/08/11 13:59:14;;;;;;;4.20;3.78;;;26.50;77.30;;;;;;5001123;28;20074;-60
2022/08/11 14:02:02;;;;;;;4.38;3.97;;;26.50;77.40;;;;;;5000453;28;20060;-60
2022/08/11 14:04:41;;;;;;;3.97;3.38;;;26.50;77.40;;;;;;5001708;28;20036;-59
2022/08/11 14:07:09;;;;;;;4.25;3.85;;;26.50;77.30;;;;;;5005100;28;20060;-60
2022/08/11 14:09:38;;;;;;;5.07;4.38;;;26.50;77.50;;;;;;5006997;28;20037;-58
2022/08/11 14:15:04;;;;;;;3.78;3.38;;;26.40;77.60;;;;;;5004571;28;20040;-59
2022/08/11 14:17:32;;;;;;;4.38;3.80;;;26.40;77.90;;;;;;5003815;28;20408;-58
2022/08/11 14:20:03;;;;;;;4.15;3.75;;;26.40;78.00;;;;;;5000411;28;20492;-58
2022/08/11 14:22:30;;;;;;;4.45;3.92;;;26.40;77.90;;;;;;5002631;28;20026;-58
2022/08/11 14:24:57;;;;;;;5.10;3.97;;;26.30;77.90;;;;;;5005628;28;20511;-58
2022/08/11 14:27:29;;;;;;;4.75;4.28;;;26.30;78.10;;;;;;5001721;28;20428;-59
2022/08/11 14:29:57;;;;;;;5.25;3.97;;;26.30;78.30;;;;;;5006133;28;20037;-57
2022/08/11 14:32:23;;;;;;;4.70;3.97;;;26.20;78.50;;;;;;5004846;28;20030;-59
2022/08/11 14:34:49;;;;;;;5.10;4.38;;;26.20;78.80;;;;;;4994581;28;20076;-59
2022/08/11 14:37:20;;;;;;;4.45;3.90;;;26.20;79.00;;;;;;5000255;28;20353;-60
2022/08/11 14:39:47;;;;;;;5.20;4.25;;;26.20;79.10;;;;;;4994982;28;20126;-60
2022/08/11 14:47:56;;;;;;;4.70;4.18;;;26.20;79.00;;;;;;5006369;28;20043;-58
2022/08/11 14:50:25;;;;;;;5.00;4.47;;;26.10;79.10;;;;;;4996710;28;20584;-57
2022/08/11 14:53:10;;;;;;;6.15;4.35;;;26.10;79.20;;;;;;4998112;28;20032;-57
2022/08/11 14:58:29;;;;;;;4.70;4.20;;;26.10;79.30;;;;;;5001969;28;20155;-57
2022/08/11 15:00:59;;;;;;;4.80;4.03;;;26.10;79.30;;;;;;4996087;28;20018;-57
2022/08/11 15:03:27;;;;;;;4.18;3.78;;;26.10;79.50;;;;;;4994559;28;20084;-56
2022/08/11 15:05:56;;;;;;;5.55;4.38;;;26.10;79.50;;;;;;4998547;28;20132;-55
2022/08/11 15:08:53;;;;;;;5.03;4.25;;;26.10;79.70;;;;;;5002490;28;20585;-55
2022/08/11 15:13:58;;;;;;;4.78;4.25;;;26.10;80.70;;;;;;5002353;28;20119;-57
2022/08/11 15:19:11;;;;;;;5.35;4.60;;;26.00;80.00;;;;;;4995934;28;20068;-58
2022/08/11 15:24:23;;;;;;;5.05;4.55;;;26.00;79.80;;;;;;4997615;28;20036;-56
2022/08/11 15:38:00;;;;;;;5.65;4.75;;;25.90;80.00;;;;;;5019258;28;20071;-58
2022/08/11 15:46:30;;;;;;;5.70;5.10;;;25.90;78.90;;;;;;5021058;28;20044;-60
2022/08/11 15:49:03;;;;;;;5.75;4.82;;;25.90;78.80;;;;;;5025074;28;20032;-62
2022/08/11 15:51:36;;;;;;;6.03;5.03;;;25.90;78.80;;;;;;5021310;28;20029;-59
2022/08/11 15:54:10;;;;;;;6.03;5.43;;;25.90;78.50;;;;;;5026262;28;20133;-58
2022/08/11 15:56:40;;;;;;;6.18;5.45;;;25.90;78.30;;;;;;5015618;28;20034;-59
2022/08/11 16:04:38;;;;;;;5.03;4.53;;;25.90;78.20;;;;;;5023166;28;20427;-59
2022/08/11 16:07:13;;;;;;;5.05;4.55;;;25.90;78.60;;;;;;5022155;28;20040;-60
2022/08/11 16:09:50;;;;;;;5.25;4.50;;;25.90;78.70;;;;;;5024793;28;20025;-60
2022/08/11 16:12:20;;;;;;;5.53;4.80;;;25.90;78.90;;;;;;5021720;28;20112;-59
2022/08/11 16:17:39;;;;;;;5.55;4.97;;;25.80;78.50;;;;;;5027065;28;20056;-61
2022/08/11 16:20:07;;;;;;;9.63;5.88;;;25.80;78.50;;;;;;5020907;28;20108;-59
2022/08/11 16:22:45;;;;;;;6.53;5.65;;;25.80;78.20;;;;;;5024289;28;20497;-60
2022/08/11 16:25:23;;;;;;;6.10;4.93;;;25.70;78.00;;;;;;5025702;28;20033;-60
2022/08/11 16:27:58;;;;;;;5.53;4.85;;;25.70;77.70;;;;;;5026008;28;20510;-55
2022/08/11 16:30:27;;;;;;;5.75;4.88;;;25.70;77.60;;;;;;5026414;28;20033;-59
2022/08/11 16:32:53;;;;;;;5.90;5.25;;;25.60;77.50;;;;;;5021094;28;20022;-56
2022/08/11 16:40:55;;;;;;;5.22;4.70;;;25.60;77.50;;;;;;5024937;28;20033;-59
2022/08/11 16:49:15;;;;;;;5.50;4.47;;;25.50;78.30;;;;;;5035666;28;20033;-59
2022/08/11 16:51:41;;;;;;;5.25;4.63;;;25.50;78.20;;;;;;5026042;28;20030;-60
2022/08/11 16:54:06;;;;;;;5.30;4.60;;;25.40;78.20;;;;;;5027421;28;20531;-60
2022/08/11 16:56:50;;;;;;;5.75;4.55;;;25.40;78.40;;;;;;5027340;28;20128;-60
2022/08/11 16:59:29;;;;;;;5.53;4.60;;;25.40;78.40;;;;;;5026301;28;20033;-59
2022/08/11 17:13:57;;;;;;;5.32;4.60;;;25.20;79.00;;;;;;5020813;28;20071;-60
2022/08/11 17:16:35;;;;;;;6.10;4.43;;;25.20;79.00;;;;;;5025647;28;20053;-63
2022/08/11 17:19:07;;;;;;;5.03;4.50;;;25.20;79.20;;;;;;5022946;28;20088;-59
2022/08/11 17:23:45;;;;;;;4.75;4.28;;;25.20;79.30;;;;;;5026843;28;20586;-59
2022/08/11 17:24:26;;;;;;;5.10;4.32;;;25.20;79.40;;;;;;5028177;28;20060;-60
2022/08/11 17:26:56;;;;;;;4.70;4.13;;;25.20;79.50;;;;;;5029451;28;20111;-61
2022/08/11 17:29:28;;;;;;;5.60;4.55;;;25.10;79.50;;;;;;5028589;28;20105;-60
2022/08/11 17:37:31;;;;;;;4.88;4.28;;;25.10;79.60;;;;;;5021393;28;20072;-61
2022/08/11 17:39:59;;;;;;;5.22;4.50;;;25.10;79.80;;;;;;5029648;28;20038;-60
2022/08/11 17:50:47;;;;;;;4.80;4.00;;;25.00;79.70;;;;;;5033391;28;20032;-61
2022/08/11 17:59:50;;;;;;;4.38;3.97;;;25.00;80.00;;;;;;5034400;28;20446;-61
2022/08/11 18:01:45;;;;;;;5.07;4.55;;;24.90;80.10;;;;;;5032767;28;20041;-60
2022/08/11 18:04:13;;;;;;;4.82;4.32;;;25.00;80.10;;;;;;5033166;28;20033;-60
2022/08/11 18:06:41;;;;;;;4.55;4.15;;;24.90;80.10;;;;;;5035097;28;20542;-61
